Detall de PIREP

Printer-friendly versionPDF version

[2012/11/17 09:30:00]
Flight IATA:CT3405
Pilot Number:012
Company ICAO:CAT
Aircraft Type:A343/E
PAX:295
Departing Airport: GCLP
Destination Airport: LEBL
Alternate Airport:LEPA
Online: VATSIM
Route:KORAL UG5 SONSO UN871 VTB UN10 CJN UL27 BRITO UN870 SEROX UN860 CASPE
Flight Level:F380
No Slew and time accel
No pause
Crash detect
Detect pilot in Cockpit between each 30 and 45 minutes
09:30 Zero fuel Weight: 343207 Lbs, Fuel Weight: 60321 Lbs
09:30 VATSIM:GCLP 170900Z 34015KT 9999 FEW025 22/14 Q1017 NOSIG
09:30 VATSIM:LEBL 170900Z 33005KT 250V050 6000 FEW018 SCT045 15/14 Q1013 NOSIG
09:30 VOICE CATALONIAN
09:30 Parking Brakes off
09:36 Take-off
09:36 Take off Weight: 402218 Lbs
09:36 Wind: 348º @ 015 Knots Heading: 018º
09:36 POS N27º 56´ 11´´ W015º 23´ 04´´
09:36 Gear Up: 204 Knots
09:36 Flaps:1 at 204 Knots
09:36 Flaps:0 at 230 Knots
09:51 Wind:259º@087 Knots Heading: 053º Ground Speed: 538 Knots Altitude 34708 ft
09:54 TOC
09:54 Fuel Weight: 51661 Lb
10:06 Wind:264º@090 Knots Heading: 050º Ground Speed: 551 Knots Altitude 38031 ft
10:21 Wind:256º@096 Knots Heading: 022º Ground Speed: 534 Knots Altitude 38031 ft
10:36 Wind:260º@066 Knots Heading: 026º Ground Speed: 516 Knots Altitude 39888 ft
10:51 Wind:261º@045 Knots Heading: 028º Ground Speed: 502 Knots Altitude 39911 ft
11:06 Wind:265º@039 Knots Heading: 042º Ground Speed: 503 Knots Altitude 39865 ft
11:21 Wind:241º@035 Knots Heading: 020º Ground Speed: 500 Knots Altitude 39881 ft
11:36 Wind:238º@026 Knots Heading: 021º Ground Speed: 492 Knots Altitude 39911 ft
11:50 TOD
11:50 Fuel Weight: 28862 Lb
11:51 Wind:199º@033 Knots Heading: 093º Ground Speed: 437 Knots Altitude 35045 ft
12:06 Wind:176º@013 Knots Heading: 069º Ground Speed: 285 Knots Altitude 7988 ft
12:12 Flaps:1 at 215 Knots
12:12 Flaps:3 at 208 Knots
12:13 Flaps:4 at 159 Knots
12:13 Gear Down: 145 Knots
12:14 Flaps:5 at 143 Knots
12:16 TouchDown:Rate -191 ft/min Speed: 135 Knots
12:16 VATSIM:LEBL 171130Z 10006KT 9999 SCT042 18/16 Q1011 NOSIG
12:16 Land
12:16 Wind:102º@006 Knots
12:16 Heading: 243º
12:16 Flight Duration: 02:40
12:16 Landing Weight: 370051 Lbs
12:16 POS N41º 17´ 56´´ E002º 05´ 02´´
12:19 Parking brakes on
12:19 Block to Block Duration: 02:49
12:19 Final Fuel: 26492 Lbls
12:19 Spent Fuel: 33829 Lbls
12:19 Flight Length: 1271 NM
12:19 TOD Land Length: 130 NM

Exportar CSV

Powered by Drupal - Modified by Danger4k